Weather observations for the past three days for
Knoxville
Metric (Imperial)
Date Time (cdt) Wind (kph) Vis. (km) Weather Sky Cond. Temperature (ºC) Relative Humidity Wind Chill (°C) Heat Index (°C) Pressure Precipitation (cm)
Air Dwpt 6 hour altimeter (cm) sea level (mb) 1 hr 3 hr 6 hr
Max. Min.
04 11:15 SW 17 16.09 Fair CLR 24 10 41% 25 75.08 0.0
04 10:55 SW 20 16.09 Fair CLR 23 9 41% 75.08 0.0
04 10:35 SW 15 16.09 Fair CLR 23 9 41% 75.08 0.0
04 10:15 SW 15 16.09 Fair CLR 22 10 47% 75.11 0.0
04 09:55 SW 17 G 28 16.09 Fair CLR 21 9 46% 75.11 0.0
04 09:35 SW 19 16.09 Fair CLR 21 9 46% 75.11 0.0
04 09:15 SW 20 16.09 Fair CLR 20 8 46% 75.13 0.0
04 08:55 S 11 16.09 Fair CLR 18 9 56% 75.13 0.0
04 08:35 S 15 16.09 Fair CLR 17 7 52% 75.13 0.0
04 08:15 S 15 16.09 Fair CLR 16 7 55% 75.16 0.0
04 07:55 S 15 16.09 Fair CLR 14 6 59% 75.16 0.0
04 07:35 S 15 16.09 Fair CLR 13 5 59% 75.18 0.0
04 07:15 S 13 16.09 Fair CLR 12 5 63% 75.18 0.0
04 06:55 S 13 16.09 Fair CLR 11 5 67% 75.18 0.0
04 06:35 S 13 16.09 Fair CLR 10 4 67% 8 75.21 0.0
04 06:15 S 11 16.09 Fair CLR 11 4 62% 75.21 0.0
04 05:55 S 9 16.09 Fair CLR 11 3 58% 75.21 0.0
04 05:35 S 11 16.09 Fair CLR 12 3 54% 75.23 0.0
04 04:30 S 11 16.09 Fair CLR 11 3 58% 75.31 0.0
04 04:15 S 11 16.09 Fair CLR 11 3 58% 75.31 0.0
04 03:55 S 13 16.09 Fair CLR 11 3 58% 75.34 0.0
04 03:35 S 11 16.09 Fair CLR 11 3 58% 75.34 0.0
04 03:15 S 11 16.09 Fair CLR 11 3 58% 75.36 0.0
04 02:55 SW 11 16.09 Fair CLR 13 3 51% 75.36 0.0
04 02:35 SW 11 16.09 Fair CLR 12 3 54% 75.39 0.0
04 02:15 SW 13 16.09 Fair CLR 12 3 54% 75.41 0.0
04 01:55 SW 11 16.09 Fair CLR 12 3 54% 75.44 0.0
04 00:55 SW 11 16.09 Fair CLR 13 2 47% 75.49 0.0
04 00:35 SW 9 16.09 Fair CLR 14 2 44% 75.49 0.0
04 00:10 SW 11 12.87 Fair CLR 15 2 42% 75.51 0.0
03 23:55 SW 9 16.09 Fair CLR 15 2 42% 75.51 0.0
03 23:35 SW 11 16.09 Fair CLR 15 2 42% 75.51 0.0
03 23:15 SW 11 16.09 Fair CLR 15 2 42% 75.54 0.0
03 22:55 SW 11 16.09 Fair CLR 15 2 42% 75.57 0.0
03 22:35 SW 11 16.09 Fair CLR 16 2 39% 75.59 0.0
03 22:15 SW 9 16.09 Fair CLR 15 2 42% 75.59 0.0
03 21:55 SW 11 16.09 Fair CLR 17 2 37% 75.59 0.0
03 21:35 SW 9 16.09 Fair CLR 17 2 37% 75.59 0.0
03 21:15 SW 9 16.09 Fair CLR 18 1 32% 75.57 0.0
03 20:55 SW 11 16.09 Fair CLR 18 1 32% 75.57 0.0
03 20:35 SW 11 16.09 Fair CLR 18 1 32% 75.57 0.0
03 20:15 SW 13 16.09 Fair CLR 19 1 30% 75.57 0.0
03 19:55 SW 9 14.48 Fair CLR 20 0 26% 75.57 0.0
03 19:35 W 11 16.09 Fair CLR 21 0 25% 75.57 0.0
03 19:15 NW 9 16.09 Fair CLR 22 0 23% 75.57 0.0
03 18:55 NW 13 G 22 16.09 Fair CLR 22 0 23% 75.57 0.0
03 18:35 NW 19 G 30 16.09 Fair CLR 23 0 22% 75.57 0.0
03 18:15 W 20 16.09 Fair CLR 23 1 23% 75.57 0.0
03 17:55 W 19 16.09 Fair CLR 23 1 23% 75.57 0.0
03 17:35 NW 20 16.09 Fair CLR 23 0 22% 75.57 0.0
03 17:15 W 17 G 30 16.09 Fair CLR 23 0 22% 75.57 0.0
03 16:55 NW 19 16.09 Fair CLR 24 0 21% 25 75.57 0.0
03 16:35 NW 19 G 33 16.09 Fair CLR 24 0 21% 25 75.59 0.0
03 16:15 W 24 G 44 16.09 Fair CLR 24 -1 19% 24 75.59 0.0
03 15:55 W 19 G 33 16.09 Fair CLR 23 0 22% 75.62 0.0
03 15:35 W 26 G 43 16.09 Fair CLR 24 0 21% 25 75.62 0.0
03 15:15 W 30 G 46 16.09 Fair CLR 23 1 23% 75.62 0.0
03 14:55 W 35 G 44 16.09 Fair and Breezy CLR 23 1 23% 75.64 0.0
03 14:35 W 28 G 37 16.09 Fair CLR 21 2 29% 75.64 0.0
03 14:15 W 30 16.09 Fair CLR 21 4 33% 75.67 0.0
03 13:55 W 20 G 31 16.09 Fair CLR 20 5 38% 75.67 0.0
03 13:35 SW 35 16.09 Fair and Breezy CLR 19 5 40% 75.72 0.0
03 13:15 SW 28 16.09 Fair CLR 19 5 40% 75.67 0.0
03 12:55 SW 22 16.09 Fair CLR 19 5 40% 75.67 0.0
03 12:15 W 31 16.09 Fair CLR 19 4 37% 75.72 0.0
03 11:55 W 26 G 39 16.09 Fair CLR 20 4 35% 75.72 0.0
03 11:35 SW 24 G 35 16.09 Fair CLR 19 4 37% 75.72 0.0
03 11:15 W 22 G 35 16.09 Fair CLR 18 4 40% 75.72 0.0
03 10:55 SW 20 G 37 16.09 Fair CLR 16 4 45% 75.72 0.0
03 10:35 SW 31 16.09 Fair CLR 17 3 39% 75.74 0.0
03 10:15 W 33 16.09 Fair and Breezy CLR 17 3 39% 75.74 0.0
03 09:55 W 37 G 46 16.09 Fair and Breezy CLR 16 3 42% 75.77 0.0
03 09:35 SW 26 G 39 16.09 Fair CLR 15 2 42% 75.77 0.0
03 09:15 SW 26 G 41 16.09 Fair CLR 14 2 44% 75.77 0.0
03 08:55 SW 26 G 44 16.09 Fair CLR 14 1 41% 75.77 0.0
03 08:35 SW 30 G 52 16.09 Fair CLR 14 1 41% 75.74 0.0
03 08:15 SW 28 G 44 16.09 Fair CLR 13 1 44% 75.77 0.0
03 07:55 SW 20 G 33 16.09 Fair CLR 12 1 47% 75.82 0.0
03 07:35 SW 22 16.09 Fair CLR 12 0 44% 75.82 0.0
03 07:15 SW 22 16.09 A Few Clouds FEW130 12 0 44% 75.82 0.0
03 06:55 S 19 G 30 16.09 Partly Cloudy SCT130 12 0 44% 75.82 0.0
03 06:35 S 19 G 28 16.09 Mostly Cloudy BKN120 12 0 44% 75.84 0.0
03 06:15 S 28 16.09 Overcast OVC120 11 0 47% 75.79 0.0
03 05:55 S 24 16.09 Overcast FEW080 OVC120 11 0 47% 75.84 0.0
03 05:35 S 22 16.09 Overcast OVC120 11 0 47% 75.84 0.0
03 05:15 S 19 16.09 Overcast OVC110 11 0 47% 75.9 0.0
03 04:55 S 19 16.09 Overcast OVC100 11 0 47% 75.9 0.0
03 04:35 S 17 16.09 Overcast SCT095 OVC120 10 0 50% 8 75.95 0.0
03 04:15 S 17 16.09 Overcast FEW095 BKN120 OVC140 10 0 50% 8 75.95 0.0
03 03:55 S 15 16.09 Overcast OVC120 10 0 50% 8 75.97 0.0
03 03:35 S 19 16.09 Mostly Cloudy BKN120 BKN190 10 0 50% 8 75.97 0.0
03 03:15 S 20 16.09 Partly Cloudy SCT120 SCT140 10 -1 47% 8 75.97 0.0
03 02:55 S 19 G 28 16.09 Partly Cloudy FEW120 SCT140 SCT160 10 -1 47% 8 76 0.0
03 02:35 S 19 16.09 Fair CLR 10 -1 47% 8 76 0.0
03 02:15 S 19 16.09 Fair CLR 10 -1 47% 8 76 0.0
03 01:55 S 19 16.09 Fair CLR 10 -1 47% 8 76.05 0.0
03 01:35 S 15 16.09 Fair CLR 9 -1 50% 7 76.07 0.0
03 01:15 S 13 16.09 Fair CLR 9 -1 50% 7 76.1 0.0
03 00:55 S 13 16.09 A Few Clouds FEW220 9 -1 50% 7 76.1 0.0
03 00:35 S 13 16.09 Fair CLR 9 -1 50% 7 76.12 0.0
03 00:15 S 15 16.09 Fair CLR 9 -1 50% 7 76.12 0.0
02 23:55 S 13 16.09 Fair CLR 9 -1 50% 7 76.15 0.0
02 23:35 S 13 16.09 A Few Clouds FEW120 10 -1 47% 8 76.15 0.0
02 23:15 S 13 14.48 Fair CLR 10 -1 47% 8 76.15 0.0
02 22:55 S 13 16.09 Fair CLR 10 -1 47% 8 76.17 0.0
02 22:35 S 13 16.09 Partly Cloudy SCT120 10 -1 47% 8 76.2 0.0
02 22:15 S 11 16.09 Mostly Cloudy BKN120 10 -1 47% 9 76.23 0.0
02 21:55 S 11 16.09 A Few Clouds FEW130 11 -1 44% 76.23 0.0
02 21:35 S 11 16.09 A Few Clouds FEW140 12 -2 38% 76.23 0.0
02 21:15 S 9 16.09 Fair CLR 13 -2 36% 76.23 0.0
02 20:55 S 9 16.09 Fair CLR 13 -2 36% 76.23 0.0
02 20:35 S 7 16.09 Fair CLR 13 -2 36% 76.23 0.0
02 20:15 S 7 16.09 Fair CLR 14 -2 33% 76.2 0.0
02 19:55 Calm 16.09 Fair CLR 15 -2 31% 76.23 0.0
02 19:35 SW 6 16.09 Fair CLR 15 -2 31% 76.23 0.0
02 19:15 W 9 G 19 16.09 Fair CLR 16 -2 29% 76.23 0.0
02 18:55 Vrbl 9 16.09 Fair CLR 16 -3 27% 76.25 0.0
02 18:35 W 15 16.09 Fair CLR 16 -3 27% 76.28 0.0
02 18:15 W 15 16.09 Fair CLR 16 -4 25% 76.28 0.0
02 17:55 W 11 G 28 16.09 Fair CLR 16 -5 23% 76.3 0.0
02 17:35 W 19 G 31 16.09 Fair CLR 16 -4 25% 76.3 0.0
02 17:15 NW 19 16.09 Fair CLR 16 -3 27% 76.33 0.0
02 16:55 NW 13 G 26 16.09 Fair CLR 16 -5 23% 76.33 0.0
02 16:35 W 20 G 31 16.09 Fair CLR 16 -4 25% 76.35 0.0
02 16:15 Vrbl 11 G 20 16.09 Fair CLR 16 -4 25% 76.35 0.0
02 15:55 W 20 16.09 Fair CLR 15 -4 27% 76.38 0.0
02 15:35 W 19 16.09 Fair CLR 15 -4 27% 76.4 0.0
02 15:15 W 11 G 24 16.09 Fair CLR 15 -3 29% 76.43 0.0
02 14:55 W 22 G 31 16.09 Fair CLR 15 -3 29% 76.45 0.0
02 14:35 SW 13 16.09 Fair CLR 15 -3 29% 76.45 0.0
02 14:15 NW 11 G 22 16.09 Fair CLR 15 -3 29% 76.45 0.0
02 13:55 Vrbl 7 16.09 Fair CLR 14 -3 31% 76.48 0.0
02 13:35 NW 11 G 22 16.09 Fair CLR 14 -3 31% 76.5 0.0
02 13:15 NE 11 16.09 Fair CLR 14 -3 31% 76.5 0.0
02 12:55 S 11 16.09 Fair CLR 14 -3 31% 76.53 0.0
02 12:35 Vrbl 9 16.09 Fair CLR 14 -3 31% 76.56 0.0
02 12:15 Vrbl 7 16.09 Fair CLR 13 -4 31% 76.56 0.0
02 11:55 Vrbl 11 16.09 Fair CLR 13 -4 31% 76.58 0.0
02 11:35 Vrbl 9 G 22 16.09 Fair CLR 13 -4 31% 76.58 0.0
02 11:15 W 11 16.09 Fair CLR 12 -4 33% 76.58 0.0
02 10:55 N 13 16.09 Fair CLR 12 -4 33% 76.58 0.0
02 10:35 Calm 16.09 Fair CLR 12 -4 33% 76.58 0.0
02 10:15 N 6 16.09 Fair CLR 12 -4 33% 76.58 0.0
02 09:55 NW 6 16.09 Fair CLR 11 -3 38% 76.58 0.0
02 09:35 Vrbl 6 16.09 Fair CLR 10 -1 47% 76.61 0.0
02 09:15 Calm 16.09 Fair CLR 9 1 58% 76.61 0.0
02 08:55 Calm 16.09 Fair CLR 8 1 62% 76.58 0.0
02 08:35 Calm 16.09 Fair CLR 6 1 71% 76.58 0.0
02 07:35 NW 6 16.09 Fair CLR 4 1 81% 76.58 0.0
02 07:15 NW 7 16.09 Fair CLR 3 1 87% 1 76.56 0.0
02 06:55 NW 9 16.09 Fair CLR 2 0 87% -0 76.53 0.0
02 06:35 NW 6 16.09 Fair CLR 2 0 87% 76.5 0.0
02 06:15 NW 7 16.09 A Few Clouds FEW070 3 0 81% 1 76.5 0.0
02 05:55 NW 9 16.09 Fair CLR 3 0 81% 1 76.5 0.0
02 05:35 N 7 16.09 Fair CLR 3 0 81% 1 76.5 0.0
02 05:15 NW 7 16.09 Fair CLR 3 1 87% 1 76.48 0.0
02 04:55 NW 9 16.09 Fair CLR 3 0 81% 1 76.48 0.0
02 04:35 NW 6 16.09 Fair CLR 4 1 81% 76.48 0.0
02 04:15 NW 7 16.09 A Few Clouds FEW080 5 0 70% 4 76.48 0.0
02 03:55 N 6 0.00 Partly Cloudy SCT075 5 0 70% 76.45 0.0
02 03:35 N 7 16.09 Mostly Cloudy BKN075 BKN085 6 -1 61% 5 76.45 0.0
02 03:15 N 7 16.09 Mostly Cloudy BKN080 7 -1 57% 6 76.45 0.0
02 02:55 N 7 16.09 Mostly Cloudy FEW070 BKN080 8 -1 53% 7 76.45 0.0
02 02:35 NW 9 16.09 Overcast OVC080 6 2 76% 4 76.45 0.0
02 02:15 N 7 16.09 Overcast FEW070 OVC080 8 -1 53% 7 76.45 0.0
02 01:55 N 7 16.09 Overcast OVC080 9 -1 50% 8 76.45 0.0
02 01:35 N 9 16.09 Overcast OVC085 9 -1 50% 8 76.45 0.0
02 01:15 N 7 16.09 Overcast BKN080 OVC090 9 -1 50% 8 76.45 0.0
02 00:55 N 7 16.09 Overcast OVC085 9 -1 50% 8 76.45 0.0
02 00:35 N 11 16.09 Overcast FEW070 OVC085 9 -1 50% 8 76.45 0.0
02 00:15 N 11 16.09 Overcast FEW070 OVC090 8 2 66% 6 76.45 0.0
01 23:55 NW 7 16.09 Overcast FEW070 OVC090 7 2 71% 6 76.45 0.0
01 23:35 NW 7 16.09 Overcast FEW070 OVC090 8 2 66% 7 76.43 0.0
01 23:15 NW 7 16.09 Overcast OVC085 9 1 58% 8 76.43 0.0
01 22:55 NW 7 16.09 Overcast OVC085 9 1 58% 8 76.43 0.0
01 22:35 N 6 16.09 Overcast OVC085 9 1 58% 76.43 0.0
01 22:15 N 6 16.09 Overcast FEW075 OVC090 10 0 50% 76.43 0.0
01 21:55 N 7 16.09 Overcast FEW070 SCT075 OVC085 11 -1 44% 76.4 0.0
01 21:35 N 7 16.09 Overcast OVC085 11 0 47% 76.4 0.0
01 21:15 N 7 16.09 Overcast OVC085 11 0 47% 76.38 0.0
01 20:55 N 7 16.09 Overcast OVC085 11 0 47% 76.35 0.0
01 20:35 N 9 16.09 Mostly Cloudy BKN090 11 0 47% 76.33 0.0
01 20:15 N 9 16.09 Mostly Cloudy BKN085 11 -1 44% 76.33 0.0
01 19:55 N 9 G 22 16.09 Partly Cloudy SCT090 12 -1 41% 76.3 0.0
01 19:35 N 13 G 22 16.09 Mostly Cloudy SCT065 BKN090 12 -1 41% 76.28 0.0
01 19:15 N 17 16.09 Mostly Cloudy BKN065 BKN095 12 -1 41% 76.28 0.0
01 18:55 N 13 16.09 Partly Cloudy SCT070 SCT080 13 -1 38% 76.28 0.0
01 18:35 N 15 16.09 Partly Cloudy SCT080 SCT100 13 -1 38% 76.25 0.0
01 18:15 NE 19 G 30 16.09 Partly Cloudy SCT070 SCT090 13 0 41% 76.25 0.0
01 17:55 N 20 G 31 16.09 Mostly Cloudy BKN070 BKN085 13 -1 38% 76.25 0.0
01 17:35 N 15 16.09 Partly Cloudy FEW070 SCT080 14 -3 31% 76.25 0.0
01 16:55 N 20 16.09 Partly Cloudy FEW065 SCT080 SCT095 14 -3 31% 76.25 0.0
01 16:35 N 20 14.48 Partly Cloudy SCT060 13 -1 38% 76.25 0.0
01 16:15 N 13 16.09 Partly Cloudy FEW055 SCT065 13 -1 38% 76.25 0.0
01 15:55 NW 9 0.00 A Few Clouds FEW080 13 0 41% 76.28 0.0
01 15:40 NW 13 16.09 A Few Clouds FEW080 13 -1 38% 76.28 0.0
01 15:15 N 13 G 31 16.09 Fair CLR 13 0 41% 76.28 0.0
01 14:55 NW 22 16.09 Fair CLR 13 0 41% 76.3 0.0
01 14:35 NW 15 G 31 16.09 Fair CLR 13 1 44% 76.3 0.0
01 14:15 NW 17 16.09 Fair CLR 13 2 47% 76.28 0.0
01 13:55 N 17 G 28 16.09 A Few Clouds FEW055 FEW065 12 1 47% 76.28 0.0
01 13:35 N 30 16.09 Partly Cloudy SCT055 SCT085 13 1 44% 76.25 0.0
01 13:15 Vrbl 9 G 20 16.09 A Few Clouds FEW055 FEW065 FEW080 14 1 41% 76.25 0.0
01 12:55 N 15 G 24 14.48 Partly Cloudy FEW050 SCT080 13 0 41% 76.25 0.0
01 12:35 N 15 16.09 Partly Cloudy FEW050 SCT055 13 0 41% 76.25 0.0
01 12:15 N 22 16.09 A Few Clouds FEW060 14 0 39% 76.25 0.0
01 11:55 Vrbl 11 16.09 Fair CLR 14 0 39% 76.25 0.0
01 11:35 N 9 16.09 Fair CLR 13 -1 38% 76.25 0.0
Date Time (cdt) Wind (kph) Vis. (km) Weather Sky Cond. Air Dwpt Max. Min. Relative Humidity Wind Chill (°C) Heat Index (°C) altimeter (cm) sea level (mb) 1 hr 3 hr 6 hr
6 hour
Temperature (ºC) Pressure Precipitation (cm)